sensor_id;sensor_type;location;lat;lon;timestamp;temperature;humidity
17080;DHT22;8655;57.106;-2.088;2024-03-02T00:02:25;16.10;47.00
17080;DHT22;8655;57.106;-2.088;2024-03-02T00:04:51;16.10;46.90
17080;DHT22;8655;57.106;-2.088;2024-03-02T00:07:17;16.10;47.00
17080;DHT22;8655;57.106;-2.088;2024-03-02T00:09:43;16.10;47.00
17080;DHT22;8655;57.106;-2.088;2024-03-02T00:12:12;16.10;47.00
17080;DHT22;8655;57.106;-2.088;2024-03-02T00:14:41;16.00;46.90
17080;DHT22;8655;57.106;-2.088;2024-03-02T00:17:16;16.00;46.90
17080;DHT22;8655;57.106;-2.088;2024-03-02T00:19:44;16.00;46.90
17080;DHT22;8655;57.106;-2.088;2024-03-02T00:22:10;16.00;46.90
17080;DHT22;8655;57.106;-2.088;2024-03-02T00:24:36;16.00;46.90
17080;DHT22;8655;57.106;-2.088;2024-03-02T00:27:04;16.00;46.90
17080;DHT22;8655;57.106;-2.088;2024-03-02T00:29:30;15.90;46.80
17080;DHT22;8655;57.106;-2.088;2024-03-02T00:31:57;15.90;46.80
17080;DHT22;8655;57.106;-2.088;2024-03-02T00:34:23;15.90;46.80
17080;DHT22;8655;57.106;-2.088;2024-03-02T00:36:49;15.90;46.80
17080;DHT22;8655;57.106;-2.088;2024-03-02T00:39:15;15.90;46.80
17080;DHT22;8655;57.106;-2.088;2024-03-02T00:41:42;15.90;46.80
17080;DHT22;8655;57.106;-2.088;2024-03-02T00:44:12;15.90;46.80
17080;DHT22;8655;57.106;-2.088;2024-03-02T00:46:42;15.90;46.80
17080;DHT22;8655;57.106;-2.088;2024-03-02T00:49:21;15.90;46.80
17080;DHT22;8655;57.106;-2.088;2024-03-02T00:51:48;15.90;46.80
17080;DHT22;8655;57.106;-2.088;2024-03-02T00:54:15;15.90;46.80
17080;DHT22;8655;57.106;-2.088;2024-03-02T00:56:43;15.80;46.70
17080;DHT22;8655;57.106;-2.088;2024-03-02T00:59:10;15.80;46.70
17080;DHT22;8655;57.106;-2.088;2024-03-02T01:01:36;15.80;46.70
17080;DHT22;8655;57.106;-2.088;2024-03-02T01:04:02;15.80;46.70
17080;DHT22;8655;57.106;-2.088;2024-03-02T01:06:27;15.80;46.70
17080;DHT22;8655;57.106;-2.088;2024-03-02T01:08:53;15.80;46.70
17080;DHT22;8655;57.106;-2.088;2024-03-02T01:11:19;15.80;46.70
17080;DHT22;8655;57.106;-2.088;2024-03-02T01:13:47;15.80;46.70
17080;DHT22;8655;57.106;-2.088;2024-03-02T01:16:13;15.70;46.60
17080;DHT22;8655;57.106;-2.088;2024-03-02T01:18:39;15.70;46.60
17080;DHT22;8655;57.106;-2.088;2024-03-02T01:21:05;15.70;46.60
17080;DHT22;8655;57.106;-2.088;2024-03-02T01:23:30;15.70;46.60
17080;DHT22;8655;57.106;-2.088;2024-03-02T01:25:56;15.70;46.60
17080;DHT22;8655;57.106;-2.088;2024-03-02T01:28:22;15.70;46.60
17080;DHT22;8655;57.106;-2.088;2024-03-02T01:30:48;15.70;46.60
17080;DHT22;8655;57.106;-2.088;2024-03-02T01:33:13;15.70;46.60
17080;DHT22;8655;57.106;-2.088;2024-03-02T01:35:39;15.70;46.60
17080;DHT22;8655;57.106;-2.088;2024-03-02T01:38:05;15.70;46.60
17080;DHT22;8655;57.106;-2.088;2024-03-02T01:40:34;15.70;46.60
17080;DHT22;8655;57.106;-2.088;2024-03-02T01:43:00;15.60;46.50
17080;DHT22;8655;57.106;-2.088;2024-03-02T01:45:26;15.60;46.50
17080;DHT22;8655;57.106;-2.088;2024-03-02T01:47:52;15.60;46.50
17080;DHT22;8655;57.106;-2.088;2024-03-02T01:50:32;15.60;46.50
17080;DHT22;8655;57.106;-2.088;2024-03-02T01:52:58;15.60;46.50
17080;DHT22;8655;57.106;-2.088;2024-03-02T01:55:25;15.60;46.50
17080;DHT22;8655;57.106;-2.088;2024-03-02T01:57:51;15.60;46.50
17080;DHT22;8655;57.106;-2.088;2024-03-02T02:00:21;15.60;46.50
17080;DHT22;8655;57.106;-2.088;2024-03-02T02:02:50;15.60;46.50
17080;DHT22;8655;57.106;-2.088;2024-03-02T02:05:16;15.60;46.50
17080;DHT22;8655;57.106;-2.088;2024-03-02T02:07:43;15.60;46.50
17080;DHT22;8655;57.106;-2.088;2024-03-02T02:10:09;15.50;46.40
17080;DHT22;8655;57.106;-2.088;2024-03-02T02:12:36;15.50;46.40
17080;DHT22;8655;57.106;-2.088;2024-03-02T02:15:03;15.50;46.40
17080;DHT22;8655;57.106;-2.088;2024-03-02T02:17:29;15.50;46.50
17080;DHT22;8655;57.106;-2.088;2024-03-02T02:19:55;15.50;46.40
17080;DHT22;8655;57.106;-2.088;2024-03-02T02:22:20;15.50;46.40
17080;DHT22;8655;57.106;-2.088;2024-03-02T02:24:46;15.50;46.40
17080;DHT22;8655;57.106;-2.088;2024-03-02T02:27:12;15.50;46.50
17080;DHT22;8655;57.106;-2.088;2024-03-02T02:29:40;15.50;46.40
17080;DHT22;8655;57.106;-2.088;2024-03-02T02:32:06;15.50;46.40
17080;DHT22;8655;57.106;-2.088;2024-03-02T02:34:32;15.50;46.50
17080;DHT22;8655;57.106;-2.088;2024-03-02T02:36:58;15.50;46.40
17080;DHT22;8655;57.106;-2.088;2024-03-02T02:39:23;15.50;46.40
17080;DHT22;8655;57.106;-2.088;2024-03-02T02:41:49;15.40;46.40
17080;DHT22;8655;57.106;-2.088;2024-03-02T02:44:15;15.40;46.40
17080;DHT22;8655;57.106;-2.088;2024-03-02T02:46:41;15.40;46.30
17080;DHT22;8655;57.106;-2.088;2024-03-02T02:49:07;15.40;46.40
17080;DHT22;8655;57.106;-2.088;2024-03-02T02:51:32;15.40;46.40
17080;DHT22;8655;57.106;-2.088;2024-03-02T02:53:58;15.40;46.40
17080;DHT22;8655;57.106;-2.088;2024-03-02T02:56:24;15.40;46.40
17080;DHT22;8655;57.106;-2.088;2024-03-02T02:58:50;15.40;46.40
17080;DHT22;8655;57.106;-2.088;2024-03-02T03:01:16;15.40;46.40
17080;DHT22;8655;57.106;-2.088;2024-03-02T03:03:45;15.40;46.40
17080;DHT22;8655;57.106;-2.088;2024-03-02T03:06:11;15.40;46.40
17080;DHT22;8655;57.106;-2.088;2024-03-02T03:08:38;15.40;46.40
17080;DHT22;8655;57.106;-2.088;2024-03-02T03:11:04;15.40;46.40
17080;DHT22;8655;57.106;-2.088;2024-03-02T03:13:33;15.40;46.40
17080;DHT22;8655;57.106;-2.088;2024-03-02T03:15:59;15.30;46.30
17080;DHT22;8655;57.106;-2.088;2024-03-02T03:18:25;15.30;46.30
17080;DHT22;8655;57.106;-2.088;2024-03-02T03:20:51;15.30;46.30
17080;DHT22;8655;57.106;-2.088;2024-03-02T03:23:16;15.30;46.30
17080;DHT22;8655;57.106;-2.088;2024-03-02T03:25:43;15.30;46.30
17080;DHT22;8655;57.106;-2.088;2024-03-02T03:28:09;15.30;46.30
17080;DHT22;8655;57.106;-2.088;2024-03-02T03:30:38;15.30;46.30
17080;DHT22;8655;57.106;-2.088;2024-03-02T03:33:04;15.30;46.40
17080;DHT22;8655;57.106;-2.088;2024-03-02T03:35:33;15.30;46.30
17080;DHT22;8655;57.106;-2.088;2024-03-02T03:38:00;15.30;46.30
17080;DHT22;8655;57.106;-2.088;2024-03-02T03:40:26;15.30;46.40
17080;DHT22;8655;57.106;-2.088;2024-03-02T03:42:51;15.30;46.40
17080;DHT22;8655;57.106;-2.088;2024-03-02T03:45:17;15.30;46.30
17080;DHT22;8655;57.106;-2.088;2024-03-02T03:47:43;15.30;46.30
17080;DHT22;8655;57.106;-2.088;2024-03-02T03:50:09;15.30;46.30
17080;DHT22;8655;57.106;-2.088;2024-03-02T03:52:35;15.30;46.40
17080;DHT22;8655;57.106;-2.088;2024-03-02T03:55:01;15.30;46.40
17080;DHT22;8655;57.106;-2.088;2024-03-02T03:57:27;15.30;46.40
17080;DHT22;8655;57.106;-2.088;2024-03-02T03:59:53;15.30;46.40
17080;DHT22;8655;57.106;-2.088;2024-03-02T04:02:19;15.30;46.40
17080;DHT22;8655;57.106;-2.088;2024-03-02T04:04:45;15.20;46.30
17080;DHT22;8655;57.106;-2.088;2024-03-02T04:07:11;15.20;46.30
17080;DHT22;8655;57.106;-2.088;2024-03-02T04:09:37;15.20;46.30
17080;DHT22;8655;57.106;-2.088;2024-03-02T04:12:03;15.20;46.30
17080;DHT22;8655;57.106;-2.088;2024-03-02T04:14:29;15.20;46.30
17080;DHT22;8655;57.106;-2.088;2024-03-02T04:16:55;15.20;46.30
17080;DHT22;8655;57.106;-2.088;2024-03-02T04:19:21;15.20;46.30
17080;DHT22;8655;57.106;-2.088;2024-03-02T04:21:46;15.20;46.30
17080;DHT22;8655;57.106;-2.088;2024-03-02T04:24:12;15.20;46.30
17080;DHT22;8655;57.106;-2.088;2024-03-02T04:26:38;15.20;46.30
17080;DHT22;8655;57.106;-2.088;2024-03-02T04:29:03;15.20;46.30
17080;DHT22;8655;57.106;-2.088;2024-03-02T04:31:29;15.20;46.30
17080;DHT22;8655;57.106;-2.088;2024-03-02T04:33:55;15.20;46.30
17080;DHT22;8655;57.106;-2.088;2024-03-02T04:36:20;15.20;46.30
17080;DHT22;8655;57.106;-2.088;2024-03-02T04:38:47;15.20;46.30
17080;DHT22;8655;57.106;-2.088;2024-03-02T04:41:13;15.20;46.30
17080;DHT22;8655;57.106;-2.088;2024-03-02T04:43:39;15.20;46.30
17080;DHT22;8655;57.106;-2.088;2024-03-02T04:46:05;15.10;46.20
17080;DHT22;8655;57.106;-2.088;2024-03-02T04:48:32;15.10;46.20
17080;DHT22;8655;57.106;-2.088;2024-03-02T04:50:58;15.10;46.30
17080;DHT22;8655;57.106;-2.088;2024-03-02T04:53:23;15.10;46.30
17080;DHT22;8655;57.106;-2.088;2024-03-02T04:55:49;15.10;46.30
17080;DHT22;8655;57.106;-2.088;2024-03-02T04:58:43;15.10;46.30
17080;DHT22;8655;57.106;-2.088;2024-03-02T05:01:09;15.10;46.30
17080;DHT22;8655;57.106;-2.088;2024-03-02T05:03:36;15.10;46.30
17080;DHT22;8655;57.106;-2.088;2024-03-02T05:06:01;15.10;46.30
17080;DHT22;8655;57.106;-2.088;2024-03-02T05:08:27;15.10;46.30
17080;DHT22;8655;57.106;-2.088;2024-03-02T05:10:53;15.10;46.30
17080;DHT22;8655;57.106;-2.088;2024-03-02T05:13:19;15.10;46.30
17080;DHT22;8655;57.106;-2.088;2024-03-02T05:15:46;15.10;46.30
17080;DHT22;8655;57.106;-2.088;2024-03-02T05:18:12;15.00;46.20
17080;DHT22;8655;57.106;-2.088;2024-03-02T05:20:38;15.00;46.20
17080;DHT22;8655;57.106;-2.088;2024-03-02T05:23:03;15.00;46.20
17080;DHT22;8655;57.106;-2.088;2024-03-02T05:25:29;15.00;46.20
17080;DHT22;8655;57.106;-2.088;2024-03-02T05:27:55;15.00;46.20
17080;DHT22;8655;57.106;-2.088;2024-03-02T05:30:21;15.00;46.20
17080;DHT22;8655;57.106;-2.088;2024-03-02T05:32:47;15.00;46.20
17080;DHT22;8655;57.106;-2.088;2024-03-02T05:35:12;15.00;46.30
17080;DHT22;8655;57.106;-2.088;2024-03-02T05:37:38;15.00;46.20
17080;DHT22;8655;57.106;-2.088;2024-03-02T05:40:05;15.00;46.20
17080;DHT22;8655;57.106;-2.088;2024-03-02T05:42:31;15.00;46.20
17080;DHT22;8655;57.106;-2.088;2024-03-02T05:44:56;15.00;46.30
17080;DHT22;8655;57.106;-2.088;2024-03-02T05:47:22;15.00;46.20
17080;DHT22;8655;57.106;-2.088;2024-03-02T05:49:48;15.00;46.30
17080;DHT22;8655;57.106;-2.088;2024-03-02T05:52:13;15.00;46.30
17080;DHT22;8655;57.106;-2.088;2024-03-02T05:54:39;15.00;46.30
17080;DHT22;8655;57.106;-2.088;2024-03-02T05:57:05;15.00;46.30
17080;DHT22;8655;57.106;-2.088;2024-03-02T05:59:56;15.00;46.30
17080;DHT22;8655;57.106;-2.088;2024-03-02T06:02:22;14.90;46.20
17080;DHT22;8655;57.106;-2.088;2024-03-02T06:04:48;14.90;46.20
17080;DHT22;8655;57.106;-2.088;2024-03-02T06:07:13;14.90;46.20
17080;DHT22;8655;57.106;-2.088;2024-03-02T06:09:39;14.90;46.20
17080;DHT22;8655;57.106;-2.088;2024-03-02T06:12:06;14.90;46.20
17080;DHT22;8655;57.106;-2.088;2024-03-02T06:14:32;14.90;46.10
17080;DHT22;8655;57.106;-2.088;2024-03-02T06:16:57;14.90;46.20
17080;DHT22;8655;57.106;-2.088;2024-03-02T06:19:25;14.90;46.20
17080;DHT22;8655;57.106;-2.088;2024-03-02T06:21:50;14.90;46.20
17080;DHT22;8655;57.106;-2.088;2024-03-02T06:24:16;14.90;46.20
17080;DHT22;8655;57.106;-2.088;2024-03-02T06:26:42;14.90;46.20
17080;DHT22;8655;57.106;-2.088;2024-03-02T06:29:07;14.90;46.20
17080;DHT22;8655;57.106;-2.088;2024-03-02T06:31:33;14.90;46.20
17080;DHT22;8655;57.106;-2.088;2024-03-02T06:33:59;14.90;46.20
17080;DHT22;8655;57.106;-2.088;2024-03-02T06:36:25;14.80;46.10
17080;DHT22;8655;57.106;-2.088;2024-03-02T06:38:51;14.80;46.10
17080;DHT22;8655;57.106;-2.088;2024-03-02T06:41:16;14.90;46.20
17080;DHT22;8655;57.106;-2.088;2024-03-02T06:43:42;14.80;46.10
17080;DHT22;8655;57.106;-2.088;2024-03-02T06:46:08;14.80;46.20
17080;DHT22;8655;57.106;-2.088;2024-03-02T06:48:35;14.80;46.20
17080;DHT22;8655;57.106;-2.088;2024-03-02T06:51:00;14.80;46.20
17080;DHT22;8655;57.106;-2.088;2024-03-02T06:53:26;14.80;46.20
17080;DHT22;8655;57.106;-2.088;2024-03-02T06:55:52;14.80;46.20
17080;DHT22;8655;57.106;-2.088;2024-03-02T06:58:18;14.80;46.20
17080;DHT22;8655;57.106;-2.088;2024-03-02T07:00:44;14.80;46.30
17080;DHT22;8655;57.106;-2.088;2024-03-02T07:03:10;14.80;46.30
17080;DHT22;8655;57.106;-2.088;2024-03-02T07:05:35;14.80;46.30
17080;DHT22;8655;57.106;-2.088;2024-03-02T07:08:01;14.90;46.40
17080;DHT22;8655;57.106;-2.088;2024-03-02T07:10:28;14.90;46.50
17080;DHT22;8655;57.106;-2.088;2024-03-02T07:12:53;14.90;46.50
17080;DHT22;8655;57.106;-2.088;2024-03-02T07:15:19;14.90;46.50
17080;DHT22;8655;57.106;-2.088;2024-03-02T07:18:04;15.00;46.60
17080;DHT22;8655;57.106;-2.088;2024-03-02T07:20:29;15.00;46.70
17080;DHT22;8655;57.106;-2.088;2024-03-02T07:22:55;15.00;46.70
17080;DHT22;8655;57.106;-2.088;2024-03-02T07:25:21;15.10;46.90
17080;DHT22;8655;57.106;-2.088;2024-03-02T07:27:47;15.10;46.90
17080;DHT22;8655;57.106;-2.088;2024-03-02T07:30:15;15.10;46.90
17080;DHT22;8655;57.106;-2.088;2024-03-02T07:32:44;15.20;47.10
17080;DHT22;8655;57.106;-2.088;2024-03-02T07:35:14;15.20;47.10
17080;DHT22;8655;57.106;-2.088;2024-03-02T07:37:41;15.30;47.20
17080;DHT22;8655;57.106;-2.088;2024-03-02T07:40:07;15.30;47.30
17080;DHT22;8655;57.106;-2.088;2024-03-02T07:42:40;15.30;47.30
17080;DHT22;8655;57.106;-2.088;2024-03-02T07:45:07;15.40;47.40
17080;DHT22;8655;57.106;-2.088;2024-03-02T07:47:34;15.40;47.40
17080;DHT22;8655;57.106;-2.088;2024-03-02T07:50:00;15.50;47.60
17080;DHT22;8655;57.106;-2.088;2024-03-02T07:52:26;15.50;48.20
17080;DHT22;8655;57.106;-2.088;2024-03-02T07:54:51;15.60;47.80
17080;DHT22;8655;57.106;-2.088;2024-03-02T07:57:17;15.60;47.80
17080;DHT22;8655;57.106;-2.088;2024-03-02T07:59:43;15.70;47.90
17080;DHT22;8655;57.106;-2.088;2024-03-02T08:02:09;15.70;47.90
17080;DHT22;8655;57.106;-2.088;2024-03-02T08:04:35;15.70;48.00
17080;DHT22;8655;57.106;-2.088;2024-03-02T08:07:02;15.80;48.10
17080;DHT22;8655;57.106;-2.088;2024-03-02T08:09:27;15.80;48.10
17080;DHT22;8655;57.106;-2.088;2024-03-02T08:11:53;15.90;48.20
17080;DHT22;8655;57.106;-2.088;2024-03-02T08:14:19;16.00;48.40
17080;DHT22;8655;57.106;-2.088;2024-03-02T08:16:45;16.00;48.40
17080;DHT22;8655;57.106;-2.088;2024-03-02T08:19:11;16.00;48.40
17080;DHT22;8655;57.106;-2.088;2024-03-02T08:21:37;16.10;48.60
17080;DHT22;8655;57.106;-2.088;2024-03-02T08:24:03;16.10;48.60
17080;DHT22;8655;57.106;-2.088;2024-03-02T08:26:29;16.20;48.70
17080;DHT22;8655;57.106;-2.088;2024-03-02T08:29:00;16.20;48.70
17080;DHT22;8655;57.106;-2.088;2024-03-02T08:31:27;16.30;48.80
17080;DHT22;8655;57.106;-2.088;2024-03-02T08:33:53;16.30;48.80
17080;DHT22;8655;57.106;-2.088;2024-03-02T08:36:19;16.40;49.00
17080;DHT22;8655;57.106;-2.088;2024-03-02T08:38:46;16.40;49.00
17080;DHT22;8655;57.106;-2.088;2024-03-02T08:41:11;16.40;49.00
17080;DHT22;8655;57.106;-2.088;2024-03-02T08:43:41;16.50;49.10
17080;DHT22;8655;57.106;-2.088;2024-03-02T08:46:07;16.50;49.10
17080;DHT22;8655;57.106;-2.088;2024-03-02T08:48:33;16.60;49.20
17080;DHT22;8655;57.106;-2.088;2024-03-02T08:50:59;16.60;49.20
17080;DHT22;8655;57.106;-2.088;2024-03-02T08:53:25;16.70;49.30
17080;DHT22;8655;57.106;-2.088;2024-03-02T08:55:51;16.70;49.30
17080;DHT22;8655;57.106;-2.088;2024-03-02T08:58:16;16.70;49.30
17080;DHT22;8655;57.106;-2.088;2024-03-02T09:00:42;16.80;49.40
17080;DHT22;8655;57.106;-2.088;2024-03-02T09:03:08;16.80;49.40
17080;DHT22;8655;57.106;-2.088;2024-03-02T09:05:34;16.90;49.50
17080;DHT22;8655;57.106;-2.088;2024-03-02T09:08:00;16.90;49.50
17080;DHT22;8655;57.106;-2.088;2024-03-02T09:10:25;16.90;49.50
17080;DHT22;8655;57.106;-2.088;2024-03-02T09:12:51;16.90;49.50
17080;DHT22;8655;57.106;-2.088;2024-03-02T09:15:17;16.90;49.60
17080;DHT22;8655;57.106;-2.088;2024-03-02T09:17:43;16.90;49.50
17080;DHT22;8655;57.106;-2.088;2024-03-02T09:20:10;17.00;49.60
17080;DHT22;8655;57.106;-2.088;2024-03-02T09:22:36;17.00;49.60
17080;DHT22;8655;57.106;-2.088;2024-03-02T09:25:02;17.00;49.60
17080;DHT22;8655;57.106;-2.088;2024-03-02T09:27:28;17.00;49.60
17080;DHT22;8655;57.106;-2.088;2024-03-02T09:29:53;17.00;49.60
17080;DHT22;8655;57.106;-2.088;2024-03-02T09:32:19;17.00;49.50
17080;DHT22;8655;57.106;-2.088;2024-03-02T09:34:45;17.00;49.50
17080;DHT22;8655;57.106;-2.088;2024-03-02T09:37:10;17.00;49.50
17080;DHT22;8655;57.106;-2.088;2024-03-02T09:39:36;17.00;49.50
17080;DHT22;8655;57.106;-2.088;2024-03-02T09:42:03;17.00;49.50
17080;DHT22;8655;57.106;-2.088;2024-03-02T09:44:30;17.10;49.60
17080;DHT22;8655;57.106;-2.088;2024-03-02T09:46:55;17.00;49.50
17080;DHT22;8655;57.106;-2.088;2024-03-02T09:49:22;17.00;49.40
17080;DHT22;8655;57.106;-2.088;2024-03-02T09:51:48;17.00;50.00
17080;DHT22;8655;57.106;-2.088;2024-03-02T09:54:15;17.00;49.40
17080;DHT22;8655;57.106;-2.088;2024-03-02T09:56:41;17.00;49.40
17080;DHT22;8655;57.106;-2.088;2024-03-02T09:59:07;17.00;49.40
17080;DHT22;8655;57.106;-2.088;2024-03-02T10:01:33;17.00;49.30
17080;DHT22;8655;57.106;-2.088;2024-03-02T10:03:59;17.00;49.30
17080;DHT22;8655;57.106;-2.088;2024-03-02T10:06:26;17.00;49.30
17080;DHT22;8655;57.106;-2.088;2024-03-02T10:08:53;17.00;49.20
17080;DHT22;8655;57.106;-2.088;2024-03-02T10:11:31;17.00;49.20
17080;DHT22;8655;57.106;-2.088;2024-03-02T10:14:09;17.00;49.20
17080;DHT22;8655;57.106;-2.088;2024-03-02T10:16:40;17.00;49.20
17080;DHT22;8655;57.106;-2.088;2024-03-02T10:19:19;16.90;49.10
17080;DHT22;8655;57.106;-2.088;2024-03-02T10:21:48;16.90;49.00
17080;DHT22;8655;57.106;-2.088;2024-03-02T10:24:18;16.90;49.00
17080;DHT22;8655;57.106;-2.088;2024-03-02T10:26:45;16.90;49.00
17080;DHT22;8655;57.106;-2.088;2024-03-02T10:29:11;16.90;49.00
17080;DHT22;8655;57.106;-2.088;2024-03-02T10:31:41;16.80;48.90
17080;DHT22;8655;57.106;-2.088;2024-03-02T10:34:09;16.90;49.00
17080;DHT22;8655;57.106;-2.088;2024-03-02T10:36:35;16.90;48.90
17080;DHT22;8655;57.106;-2.088;2024-03-02T10:39:05;16.80;48.90
17080;DHT22;8655;57.106;-2.088;2024-03-02T10:41:37;16.80;48.80
17080;DHT22;8655;57.106;-2.088;2024-03-02T10:44:06;16.80;48.80
17080;DHT22;8655;57.106;-2.088;2024-03-02T10:46:35;16.80;48.80
17080;DHT22;8655;57.106;-2.088;2024-03-02T10:49:02;16.80;48.80
17080;DHT22;8655;57.106;-2.088;2024-03-02T10:51:30;16.80;48.80
17080;DHT22;8655;57.106;-2.088;2024-03-02T10:54:00;16.70;48.70
17080;DHT22;8655;57.106;-2.088;2024-03-02T11:01:47;16.70;48.60
17080;DHT22;8655;57.106;-2.088;2024-03-02T11:04:13;16.70;48.60
17080;DHT22;8655;57.106;-2.088;2024-03-02T11:06:47;16.70;48.60
17080;DHT22;8655;57.106;-2.088;2024-03-02T11:09:14;16.70;48.60
17080;DHT22;8655;57.106;-2.088;2024-03-02T11:11:43;16.70;48.50
17080;DHT22;8655;57.106;-2.088;2024-03-02T11:14:14;16.70;48.50
17080;DHT22;8655;57.106;-2.088;2024-03-02T11:16:42;16.60;48.40
17080;DHT22;8655;57.106;-2.088;2024-03-02T11:19:11;16.60;48.40
17080;DHT22;8655;57.106;-2.088;2024-03-02T11:21:38;16.60;48.40
17080;DHT22;8655;57.106;-2.088;2024-03-02T11:26:52;16.60;48.40
17080;DHT22;8655;57.106;-2.088;2024-03-02T11:29:53;16.60;48.40
17080;DHT22;8655;57.106;-2.088;2024-03-02T11:32:22;16.50;48.30
17080;DHT22;8655;57.106;-2.088;2024-03-02T11:34:51;16.60;48.30
17080;DHT22;8655;57.106;-2.088;2024-03-02T11:37:18;16.50;48.20
17080;DHT22;8655;57.106;-2.088;2024-03-02T11:39:46;16.50;48.30
17080;DHT22;8655;57.106;-2.088;2024-03-02T11:42:13;16.50;48.20
17080;DHT22;8655;57.106;-2.088;2024-03-02T11:44:47;16.50;48.20
17080;DHT22;8655;57.106;-2.088;2024-03-02T11:47:17;16.50;48.20
17080;DHT22;8655;57.106;-2.088;2024-03-02T11:49:48;16.50;48.20
17080;DHT22;8655;57.106;-2.088;2024-03-02T11:52:15;16.50;48.20
17080;DHT22;8655;57.106;-2.088;2024-03-02T11:54:44;16.40;48.10
17080;DHT22;8655;57.106;-2.088;2024-03-02T11:57:21;16.40;48.10
17080;DHT22;8655;57.106;-2.088;2024-03-02T11:59:50;16.40;48.10
17080;DHT22;8655;57.106;-2.088;2024-03-02T12:02:20;16.40;48.10
17080;DHT22;8655;57.106;-2.088;2024-03-02T12:04:47;16.40;48.10
17080;DHT22;8655;57.106;-2.088;2024-03-02T12:07:23;16.40;48.10
17080;DHT22;8655;57.106;-2.088;2024-03-02T12:09:59;16.40;48.10
17080;DHT22;8655;57.106;-2.088;2024-03-02T12:12:24;16.40;48.10
17080;DHT22;8655;57.106;-2.088;2024-03-02T12:14:52;16.40;48.00
17080;DHT22;8655;57.106;-2.088;2024-03-02T12:17:20;16.40;48.00
17080;DHT22;8655;57.106;-2.088;2024-03-02T12:19:46;16.40;48.00
17080;DHT22;8655;57.106;-2.088;2024-03-02T12:22:12;16.40;48.00
17080;DHT22;8655;57.106;-2.088;2024-03-02T12:24:38;16.40;48.00
17080;DHT22;8655;57.106;-2.088;2024-03-02T12:27:05;16.40;48.00
17080;DHT22;8655;57.106;-2.088;2024-03-02T12:29:32;16.30;47.90
17080;DHT22;8655;57.106;-2.088;2024-03-02T12:31:59;16.30;47.90
17080;DHT22;8655;57.106;-2.088;2024-03-02T12:34:27;16.30;47.90
17080;DHT22;8655;57.106;-2.088;2024-03-02T12:36:53;16.30;47.90
17080;DHT22;8655;57.106;-2.088;2024-03-02T12:39:19;16.30;47.90
17080;DHT22;8655;57.106;-2.088;2024-03-02T12:41:46;16.30;47.90
17080;DHT22;8655;57.106;-2.088;2024-03-02T12:44:12;16.30;47.90
17080;DHT22;8655;57.106;-2.088;2024-03-02T12:46:38;16.30;47.90
17080;DHT22;8655;57.106;-2.088;2024-03-02T12:49:11;16.30;47.90
17080;DHT22;8655;57.106;-2.088;2024-03-02T12:51:41;16.30;47.90
17080;DHT22;8655;57.106;-2.088;2024-03-02T12:54:07;16.30;47.90
17080;DHT22;8655;57.106;-2.088;2024-03-02T12:56:33;16.30;47.90
17080;DHT22;8655;57.106;-2.088;2024-03-02T12:59:01;16.30;47.90
17080;DHT22;8655;57.106;-2.088;2024-03-02T13:01:30;16.30;47.90
17080;DHT22;8655;57.106;-2.088;2024-03-02T13:03:58;16.30;47.90
17080;DHT22;8655;57.106;-2.088;2024-03-02T13:06:24;16.30;47.90
17080;DHT22;8655;57.106;-2.088;2024-03-02T13:08:53;16.30;47.90
17080;DHT22;8655;57.106;-2.088;2024-03-02T13:11:20;16.30;47.90
17080;DHT22;8655;57.106;-2.088;2024-03-02T13:13:46;16.30;47.80
17080;DHT22;8655;57.106;-2.088;2024-03-02T13:16:12;16.30;47.90
17080;DHT22;8655;57.106;-2.088;2024-03-02T13:18:39;16.20;47.70
17080;DHT22;8655;57.106;-2.088;2024-03-02T13:21:08;16.30;47.80
17080;DHT22;8655;57.106;-2.088;2024-03-02T13:23:34;16.30;47.80
17080;DHT22;8655;57.106;-2.088;2024-03-02T13:26:00;16.20;47.80
17080;DHT22;8655;57.106;-2.088;2024-03-02T13:28:26;16.20;47.70
17080;DHT22;8655;57.106;-2.088;2024-03-02T13:30:52;16.30;47.80
17080;DHT22;8655;57.106;-2.088;2024-03-02T13:33:18;16.20;47.70
17080;DHT22;8655;57.106;-2.088;2024-03-02T13:35:50;16.20;47.80
17080;DHT22;8655;57.106;-2.088;2024-03-02T13:38:20;16.20;47.70
17080;DHT22;8655;57.106;-2.088;2024-03-02T13:40:49;16.20;47.80
17080;DHT22;8655;57.106;-2.088;2024-03-02T13:43:18;16.20;48.30
17080;DHT22;8655;57.106;-2.088;2024-03-02T13:45:46;16.20;47.70
17080;DHT22;8655;57.106;-2.088;2024-03-02T13:48:13;16.20;47.80
17080;DHT22;8655;57.106;-2.088;2024-03-02T13:50:40;16.20;47.80
17080;DHT22;8655;57.106;-2.088;2024-03-02T13:53:06;16.20;47.80
17080;DHT22;8655;57.106;-2.088;2024-03-02T13:55:32;16.20;47.70
17080;DHT22;8655;57.106;-2.088;2024-03-02T13:57:58;16.20;47.70
17080;DHT22;8655;57.106;-2.088;2024-03-02T14:00:25;16.20;47.70
17080;DHT22;8655;57.106;-2.088;2024-03-02T14:02:50;16.20;47.80
17080;DHT22;8655;57.106;-2.088;2024-03-02T14:05:16;16.20;47.70
17080;DHT22;8655;57.106;-2.088;2024-03-02T14:07:42;16.20;47.70
17080;DHT22;8655;57.106;-2.088;2024-03-02T14:10:09;16.20;47.70
17080;DHT22;8655;57.106;-2.088;2024-03-02T14:12:37;16.20;47.70
17080;DHT22;8655;57.106;-2.088;2024-03-02T14:15:03;16.20;47.70
17080;DHT22;8655;57.106;-2.088;2024-03-02T14:17:29;16.20;47.80
17080;DHT22;8655;57.106;-2.088;2024-03-02T14:19:57;16.20;47.80
17080;DHT22;8655;57.106;-2.088;2024-03-02T14:22:24;16.20;47.70
17080;DHT22;8655;57.106;-2.088;2024-03-02T14:24:50;16.20;47.80
17080;DHT22;8655;57.106;-2.088;2024-03-02T14:27:16;16.20;47.70
17080;DHT22;8655;57.106;-2.088;2024-03-02T14:29:45;16.20;47.70
17080;DHT22;8655;57.106;-2.088;2024-03-02T14:32:11;16.30;47.80
17080;DHT22;8655;57.106;-2.088;2024-03-02T14:34:36;16.20;47.70
17080;DHT22;8655;57.106;-2.088;2024-03-02T14:37:02;16.20;47.70
17080;DHT22;8655;57.106;-2.088;2024-03-02T14:39:28;16.20;47.70
17080;DHT22;8655;57.106;-2.088;2024-03-02T14:41:55;16.20;47.80
17080;DHT22;8655;57.106;-2.088;2024-03-02T14:44:21;16.20;47.80
17080;DHT22;8655;57.106;-2.088;2024-03-02T14:46:48;16.20;47.80
17080;DHT22;8655;57.106;-2.088;2024-03-02T14:49:13;16.30;47.80
17080;DHT22;8655;57.106;-2.088;2024-03-02T14:51:39;16.30;47.80
17080;DHT22;8655;57.106;-2.088;2024-03-02T14:54:05;16.30;47.80
17080;DHT22;8655;57.106;-2.088;2024-03-02T14:56:31;16.30;47.80
17080;DHT22;8655;57.106;-2.088;2024-03-02T14:58:56;16.20;47.80
17080;DHT22;8655;57.106;-2.088;2024-03-02T15:01:22;16.30;48.40
17080;DHT22;8655;57.106;-2.088;2024-03-02T15:03:50;16.30;47.80
17080;DHT22;8655;57.106;-2.088;2024-03-02T15:06:16;16.30;47.90
17080;DHT22;8655;57.106;-2.088;2024-03-02T15:08:42;16.30;47.80
17080;DHT22;8655;57.106;-2.088;2024-03-02T15:11:08;16.30;47.90
17080;DHT22;8655;57.106;-2.088;2024-03-02T15:13:34;16.30;47.80
17080;DHT22;8655;57.106;-2.088;2024-03-02T15:16:00;16.30;47.90
17080;DHT22;8655;57.106;-2.088;2024-03-02T15:18:26;16.30;47.80
17080;DHT22;8655;57.106;-2.088;2024-03-02T15:20:53;16.30;47.90
17080;DHT22;8655;57.106;-2.088;2024-03-02T15:23:18;16.20;47.80
17080;DHT22;8655;57.106;-2.088;2024-03-02T15:25:44;16.30;47.80
17080;DHT22;8655;57.106;-2.088;2024-03-02T15:28:10;16.30;47.80
17080;DHT22;8655;57.106;-2.088;2024-03-02T15:30:35;16.30;47.90
17080;DHT22;8655;57.106;-2.088;2024-03-02T15:33:02;16.30;47.90
17080;DHT22;8655;57.106;-2.088;2024-03-02T15:35:28;16.30;47.90
17080;DHT22;8655;57.106;-2.088;2024-03-02T15:37:54;16.30;47.90